sensor_id;sensor_type;location;lat;lon;timestamp;P1;durP1;ratioP1;P2;durP2;ratioP2
7169;SDS011;3626;42.656;23.312;2023-04-25T00:00:00;9.76;;;5.03;;
7169;SDS011;3626;42.656;23.312;2023-04-25T00:00:06;9.60;;;4.90;;
7169;SDS011;3626;42.656;23.312;2023-04-25T00:00:14;9.32;;;4.94;;
7169;SDS011;3626;42.656;23.312;2023-04-25T00:00:20;8.67;;;5.23;;
7169;SDS011;3626;42.656;23.312;2023-04-25T00:00:26;8.90;;;5.40;;
7169;SDS011;3626;42.656;23.312;2023-04-25T00:00:33;8.50;;;5.50;;
7169;SDS011;3626;42.656;23.312;2023-04-25T00:00:40;8.88;;;5.53;;
7169;SDS011;3626;42.656;23.312;2023-04-25T00:00:46;9.76;;;5.46;;
7169;SDS011;3626;42.656;23.312;2023-04-25T00:00:52;10.73;;;5.50;;
7169;SDS011;3626;42.656;23.312;2023-04-25T00:00:58;10.55;;;5.60;;
7169;SDS011;3626;42.656;23.312;2023-04-25T00:01:04;10.35;;;5.60;;
7169;SDS011;3626;42.656;23.312;2023-04-25T00:01:10;10.68;;;5.70;;
7169;SDS011;3626;42.656;23.312;2023-04-25T00:01:18;11.17;;;5.55;;
7169;SDS011;3626;42.656;23.312;2023-04-25T00:01:24;11.43;;;5.55;;
7169;SDS011;3626;42.656;23.312;2023-04-25T00:01:30;11.45;;;5.50;;
7169;SDS011;3626;42.656;23.312;2023-04-25T00:01:37;10.92;;;5.28;;
7169;SDS011;3626;42.656;23.312;2023-04-25T00:01:43;9.67;;;5.20;;
7169;SDS011;3626;42.656;23.312;2023-04-25T00:01:49;8.35;;;5.20;;
7169;SDS011;3626;42.656;23.312;2023-04-25T00:01:56;8.70;;;5.07;;
7169;SDS011;3626;42.656;23.312;2023-04-25T00:02:02;8.93;;;5.10;;
7169;SDS011;3626;42.656;23.312;2023-04-25T00:02:12;8.57;;;4.93;;
7169;SDS011;3626;42.656;23.312;2023-04-25T00:02:18;7.85;;;4.88;;
7169;SDS011;3626;42.656;23.312;2023-04-25T00:02:24;7.70;;;4.60;;
7169;SDS011;3626;42.656;23.312;2023-04-25T00:02:30;7.47;;;4.53;;
7169;SDS011;3626;42.656;23.312;2023-04-25T00:02:37;7.36;;;4.50;;
7169;SDS011;3626;42.656;23.312;2023-04-25T00:02:43;7.30;;;4.40;;
7169;SDS011;3626;42.656;23.312;2023-04-25T00:02:49;6.97;;;4.40;;
7169;SDS011;3626;42.656;23.312;2023-04-25T00:02:55;6.25;;;4.45;;
7169;SDS011;3626;42.656;23.312;2023-04-25T00:03:01;6.35;;;4.53;;
7169;SDS011;3626;42.656;23.312;2023-04-25T00:03:08;8.14;;;4.78;;
7169;SDS011;3626;42.656;23.312;2023-04-25T00:03:14;8.07;;;4.78;;
7169;SDS011;3626;42.656;23.312;2023-04-25T00:03:20;7.90;;;4.70;;
7169;SDS011;3626;42.656;23.312;2023-04-25T00:03:26;8.20;;;4.90;;
7169;SDS011;3626;42.656;23.312;2023-04-25T00:03:34;9.17;;;5.20;;
7169;SDS011;3626;42.656;23.312;2023-04-25T00:03:40;9.27;;;5.33;;
7169;SDS011;3626;42.656;23.312;2023-04-25T00:03:46;9.48;;;5.50;;
7169;SDS011;3626;42.656;23.312;2023-04-25T00:03:52;9.50;;;5.50;;
7169;SDS011;3626;42.656;23.312;2023-04-25T00:03:58;9.50;;;5.35;;
7169;SDS011;3626;42.656;23.312;2023-04-25T00:04:04;8.77;;;5.22;;
7169;SDS011;3626;42.656;23.312;2023-04-25T00:04:10;8.27;;;5.10;;
7169;SDS011;3626;42.656;23.312;2023-04-25T00:04:16;8.43;;;5.10;;
7169;SDS011;3626;42.656;23.312;2023-04-25T00:04:22;8.30;;;5.03;;
7169;SDS011;3626;42.656;23.312;2023-04-25T00:04:28;8.00;;;4.88;;
7169;SDS011;3626;42.656;23.312;2023-04-25T00:04:34;7.37;;;4.70;;
7169;SDS011;3626;42.656;23.312;2023-04-25T00:04:43;7.51;;;4.60;;
7169;SDS011;3626;42.656;23.312;2023-04-25T00:04:48;7.50;;;4.53;;
7169;SDS011;3626;42.656;23.312;2023-04-25T00:04:57;7.92;;;4.43;;
7169;SDS011;3626;42.656;23.312;2023-04-25T00:05:04;9.18;;;4.42;;
7169;SDS011;3626;42.656;23.312;2023-04-25T00:05:10;9.60;;;4.43;;
7169;SDS011;3626;42.656;23.312;2023-04-25T00:05:17;10.28;;;4.60;;
7169;SDS011;3626;42.656;23.312;2023-04-25T00:05:25;11.10;;;4.78;;
7169;SDS011;3626;42.656;23.312;2023-04-25T00:05:31;11.18;;;4.80;;
7169;SDS011;3626;42.656;23.312;2023-04-25T00:05:37;13.57;;;5.00;;
7169;SDS011;3626;42.656;23.312;2023-04-25T00:05:44;13.43;;;5.00;;
7169;SDS011;3626;42.656;23.312;2023-04-25T00:05:50;13.50;;;5.10;;
7169;SDS011;3626;42.656;23.312;2023-04-25T00:05:56;12.98;;;5.10;;
7169;SDS011;3626;42.656;23.312;2023-04-25T00:06:03;11.57;;;5.10;;
7169;SDS011;3626;42.656;23.312;2023-04-25T00:06:09;11.15;;;5.18;;
7169;SDS011;3626;42.656;23.312;2023-04-25T00:06:14;10.43;;;5.20;;
7169;SDS011;3626;42.656;23.312;2023-04-25T00:06:20;9.52;;;5.00;;
7169;SDS011;3626;42.656;23.312;2023-04-25T00:06:31;10.26;;;4.93;;
7169;SDS011;3626;42.656;23.312;2023-04-25T00:06:37;8.40;;;5.00;;
7169;SDS011;3626;42.656;23.312;2023-04-25T00:06:43;8.10;;;5.10;;
7169;SDS011;3626;42.656;23.312;2023-04-25T00:06:49;8.10;;;5.10;;
7169;SDS011;3626;42.656;23.312;2023-04-25T00:06:55;8.07;;;5.13;;
7169;SDS011;3626;42.656;23.312;2023-04-25T00:07:01;7.43;;;5.10;;
7169;SDS011;3626;42.656;23.312;2023-04-25T00:07:07;8.52;;;5.20;;
7169;SDS011;3626;42.656;23.312;2023-04-25T00:07:13;9.48;;;5.20;;
7169;SDS011;3626;42.656;23.312;2023-04-25T00:07:19;10.97;;;5.47;;
7169;SDS011;3626;42.656;23.312;2023-04-25T00:07:25;11.40;;;5.50;;
7169;SDS011;3626;42.656;23.312;2023-04-25T00:07:30;10.48;;;5.50;;
7169;SDS011;3626;42.656;23.312;2023-04-25T00:07:38;10.32;;;5.44;;
7169;SDS011;3626;42.656;23.312;2023-04-25T00:07:44;11.15;;;5.45;;
7169;SDS011;3626;42.656;23.312;2023-04-25T00:07:50;11.48;;;5.55;;
7169;SDS011;3626;42.656;23.312;2023-04-25T00:07:57;11.55;;;5.60;;
7169;SDS011;3626;42.656;23.312;2023-04-25T00:08:03;11.60;;;5.70;;
7169;SDS011;3626;42.656;23.312;2023-04-25T00:08:09;11.45;;;5.63;;
7169;SDS011;3626;42.656;23.312;2023-04-25T00:08:15;10.50;;;5.57;;
7169;SDS011;3626;42.656;23.312;2023-04-25T00:08:21;9.25;;;5.50;;
7169;SDS011;3626;42.656;23.312;2023-04-25T00:08:27;9.23;;;5.47;;
7169;SDS011;3626;42.656;23.312;2023-04-25T00:08:34;10.77;;;5.60;;
7169;SDS011;3626;42.656;23.312;2023-04-25T00:08:40;10.65;;;5.55;;
7169;SDS011;3626;42.656;23.312;2023-04-25T00:08:46;9.90;;;5.37;;
7169;SDS011;3626;42.656;23.312;2023-04-25T00:08:52;9.70;;;5.30;;
7169;SDS011;3626;42.656;23.312;2023-04-25T00:08:58;9.43;;;5.13;;
7169;SDS011;3626;42.656;23.312;2023-04-25T00:09:05;8.62;;;4.90;;
7169;SDS011;3626;42.656;23.312;2023-04-25T00:09:12;7.90;;;4.90;;
7169;SDS011;3626;42.656;23.312;2023-04-25T00:09:18;7.73;;;4.80;;
7169;SDS011;3626;42.656;23.312;2023-04-25T00:09:24;7.85;;;4.88;;
7169;SDS011;3626;42.656;23.312;2023-04-25T00:09:31;7.53;;;4.80;;
7169;SDS011;3626;42.656;23.312;2023-04-25T00:09:37;6.20;;;4.80;;
7169;SDS011;3626;42.656;23.312;2023-04-25T00:09:44;6.20;;;4.90;;
7169;SDS011;3626;42.656;23.312;2023-04-25T00:09:50;6.66;;;5.00;;
7169;SDS011;3626;42.656;23.312;2023-04-25T00:09:56;7.10;;;5.10;;
7169;SDS011;3626;42.656;23.312;2023-04-25T00:10:02;7.68;;;5.45;;
7169;SDS011;3626;42.656;23.312;2023-04-25T00:10:08;7.83;;;5.43;;
7169;SDS011;3626;42.656;23.312;2023-04-25T00:10:16;8.00;;;5.65;;
7169;SDS011;3626;42.656;23.312;2023-04-25T00:10:23;8.56;;;5.76;;
7169;SDS011;3626;42.656;23.312;2023-04-25T00:10:29;8.70;;;5.80;;
7169;SDS011;3626;42.656;23.312;2023-04-25T00:10:35;8.80;;;5.78;;
7169;SDS011;3626;42.656;23.312;2023-04-25T00:10:41;8.90;;;5.88;;
7169;SDS011;3626;42.656;23.312;2023-04-25T00:10:47;8.63;;;5.75;;
7169;SDS011;3626;42.656;23.312;2023-04-25T00:10:54;8.43;;;5.70;;
7169;SDS011;3626;42.656;23.312;2023-04-25T00:11:04;7.93;;;5.55;;
7169;SDS011;3626;42.656;23.312;2023-04-25T00:11:10;7.80;;;5.47;;
7169;SDS011;3626;42.656;23.312;2023-04-25T00:11:16;7.57;;;5.25;;
7169;SDS011;3626;42.656;23.312;2023-04-25T00:11:21;7.13;;;5.18;;
7169;SDS011;3626;42.656;23.312;2023-04-25T00:11:27;7.40;;;5.38;;
7169;SDS011;3626;42.656;23.312;2023-04-25T00:11:35;7.50;;;5.50;;
7169;SDS011;3626;42.656;23.312;2023-04-25T00:11:43;7.33;;;5.40;;
7169;SDS011;3626;42.656;23.312;2023-04-25T00:11:49;7.47;;;5.53;;
7169;SDS011;3626;42.656;23.312;2023-04-25T00:11:55;7.75;;;5.53;;
7169;SDS011;3626;42.656;23.312;2023-04-25T00:12:01;7.80;;;5.57;;
7169;SDS011;3626;42.656;23.312;2023-04-25T00:12:07;8.63;;;5.78;;
7169;SDS011;3626;42.656;23.312;2023-04-25T00:12:13;9.13;;;5.82;;
7169;SDS011;3626;42.656;23.312;2023-04-25T00:12:19;9.40;;;6.05;;
7169;SDS011;3626;42.656;23.312;2023-04-25T00:12:25;9.98;;;5.85;;
7169;SDS011;3626;42.656;23.312;2023-04-25T00:12:33;9.60;;;5.63;;
7169;SDS011;3626;42.656;23.312;2023-04-25T00:12:39;9.90;;;5.70;;
7169;SDS011;3626;42.656;23.312;2023-04-25T00:12:46;10.30;;;5.80;;
7169;SDS011;3626;42.656;23.312;2023-04-25T00:12:52;9.80;;;5.70;;
7169;SDS011;3626;42.656;23.312;2023-04-25T00:12:58;9.80;;;5.80;;
7169;SDS011;3626;42.656;23.312;2023-04-25T00:13:07;9.17;;;5.70;;
7169;SDS011;3626;42.656;23.312;2023-04-25T00:13:13;8.90;;;5.83;;
7169;SDS011;3626;42.656;23.312;2023-04-25T00:13:19;9.14;;;5.80;;
7169;SDS011;3626;42.656;23.312;2023-04-25T00:13:27;8.37;;;6.00;;
7169;SDS011;3626;42.656;23.312;2023-04-25T00:13:32;8.35;;;5.93;;
7169;SDS011;3626;42.656;23.312;2023-04-25T00:13:38;7.95;;;5.78;;
7169;SDS011;3626;42.656;23.312;2023-04-25T00:13:46;7.52;;;5.57;;
7169;SDS011;3626;42.656;23.312;2023-04-25T00:13:54;7.35;;;5.48;;
7169;SDS011;3626;42.656;23.312;2023-04-25T00:14:00;7.25;;;5.40;;
7169;SDS011;3626;42.656;23.312;2023-04-25T00:14:07;7.03;;;5.30;;
7169;SDS011;3626;42.656;23.312;2023-04-25T00:14:13;6.67;;;5.10;;
7169;SDS011;3626;42.656;23.312;2023-04-25T00:14:19;6.25;;;5.00;;
7169;SDS011;3626;42.656;23.312;2023-04-25T00:14:24;6.60;;;4.90;;
7169;SDS011;3626;42.656;23.312;2023-04-25T00:14:30;7.93;;;5.07;;
7169;SDS011;3626;42.656;23.312;2023-04-25T00:14:39;8.67;;;5.10;;
7169;SDS011;3626;42.656;23.312;2023-04-25T00:14:45;9.45;;;5.20;;
7169;SDS011;3626;42.656;23.312;2023-04-25T00:14:54;10.26;;;5.29;;
7169;SDS011;3626;42.656;23.312;2023-04-25T00:15:02;10.87;;;5.40;;
7169;SDS011;3626;42.656;23.312;2023-04-25T00:15:08;10.93;;;5.35;;
7169;SDS011;3626;42.656;23.312;2023-04-25T00:15:15;10.97;;;5.27;;
7169;SDS011;3626;42.656;23.312;2023-04-25T00:15:21;10.90;;;5.13;;
7169;SDS011;3626;42.656;23.312;2023-04-25T00:15:28;9.35;;;5.00;;
7169;SDS011;3626;42.656;23.312;2023-04-25T00:15:35;9.30;;;4.97;;
7169;SDS011;3626;42.656;23.312;2023-04-25T00:15:43;7.90;;;4.90;;
7169;SDS011;3626;42.656;23.312;2023-04-25T00:15:49;7.70;;;5.10;;
7169;SDS011;3626;42.656;23.312;2023-04-25T00:15:55;7.05;;;5.10;;
7169;SDS011;3626;42.656;23.312;2023-04-25T00:16:01;6.80;;;5.00;;
7169;SDS011;3626;42.656;23.312;2023-04-25T00:16:07;6.95;;;5.10;;
7169;SDS011;3626;42.656;23.312;2023-04-25T00:16:14;7.60;;;5.33;;
7169;SDS011;3626;42.656;23.312;2023-04-25T00:16:20;7.90;;;5.50;;
7169;SDS011;3626;42.656;23.312;2023-04-25T00:16:26;8.18;;;5.60;;
7169;SDS011;3626;42.656;23.312;2023-04-25T00:16:34;8.40;;;5.44;;
7169;SDS011;3626;42.656;23.312;2023-04-25T00:16:40;8.36;;;5.50;;
7169;SDS011;3626;42.656;23.312;2023-04-25T00:16:49;8.50;;;5.42;;
7169;SDS011;3626;42.656;23.312;2023-04-25T00:16:56;8.83;;;5.40;;
7169;SDS011;3626;42.656;23.312;2023-04-25T00:17:03;8.98;;;5.50;;
7169;SDS011;3626;42.656;23.312;2023-04-25T00:17:09;8.60;;;5.32;;
7169;SDS011;3626;42.656;23.312;2023-04-25T00:17:16;8.20;;;5.34;;
7169;SDS011;3626;42.656;23.312;2023-04-25T00:17:22;8.70;;;5.40;;
7169;SDS011;3626;42.656;23.312;2023-04-25T00:17:29;8.00;;;5.30;;
7169;SDS011;3626;42.656;23.312;2023-04-25T00:17:36;7.92;;;5.30;;
7169;SDS011;3626;42.656;23.312;2023-04-25T00:17:43;7.84;;;5.30;;
7169;SDS011;3626;42.656;23.312;2023-04-25T00:17:50;7.27;;;5.10;;
7169;SDS011;3626;42.656;23.312;2023-04-25T00:17:57;7.80;;;5.00;;
7169;SDS011;3626;42.656;23.312;2023-04-25T00:18:03;7.82;;;5.00;;
7169;SDS011;3626;42.656;23.312;2023-04-25T00:18:10;8.30;;;5.20;;
7169;SDS011;3626;42.656;23.312;2023-04-25T00:18:16;8.07;;;5.03;;
7169;SDS011;3626;42.656;23.312;2023-04-25T00:18:23;7.20;;;4.90;;
7169;SDS011;3626;42.656;23.312;2023-04-25T00:18:29;7.46;;;5.00;;
7169;SDS011;3626;42.656;23.312;2023-04-25T00:18:35;7.85;;;5.20;;
7169;SDS011;3626;42.656;23.312;2023-04-25T00:18:41;8.00;;;5.20;;
7169;SDS011;3626;42.656;23.312;2023-04-25T00:18:47;8.63;;;5.40;;
7169;SDS011;3626;42.656;23.312;2023-04-25T00:18:56;8.17;;;5.53;;
7169;SDS011;3626;42.656;23.312;2023-04-25T00:19:03;7.96;;;5.34;;
7169;SDS011;3626;42.656;23.312;2023-04-25T00:19:09;7.70;;;5.15;;
7169;SDS011;3626;42.656;23.312;2023-04-25T00:19:15;7.57;;;5.10;;
7169;SDS011;3626;42.656;23.312;2023-04-25T00:19:21;7.50;;;5.10;;
7169;SDS011;3626;42.656;23.312;2023-04-25T00:19:27;7.30;;;5.00;;
7169;SDS011;3626;42.656;23.312;2023-04-25T00:19:34;7.18;;;4.90;;
7169;SDS011;3626;42.656;23.312;2023-04-25T00:19:40;7.40;;;4.95;;
7169;SDS011;3626;42.656;23.312;2023-04-25T00:19:46;7.00;;;4.87;;
7169;SDS011;3626;42.656;23.312;2023-04-25T00:19:52;6.28;;;4.60;;
7169;SDS011;3626;42.656;23.312;2023-04-25T00:19:58;6.40;;;4.70;;
7169;SDS011;3626;42.656;23.312;2023-04-25T00:20:04;6.60;;;4.80;;
7169;SDS011;3626;42.656;23.312;2023-04-25T00:20:12;6.83;;;4.80;;
7169;SDS011;3626;42.656;23.312;2023-04-25T00:20:18;7.03;;;4.90;;
7169;SDS011;3626;42.656;23.312;2023-04-25T00:20:24;7.03;;;4.97;;
7169;SDS011;3626;42.656;23.312;2023-04-25T00:20:30;7.13;;;5.00;;
7169;SDS011;3626;42.656;23.312;2023-04-25T00:20:36;6.78;;;4.93;;
7169;SDS011;3626;42.656;23.312;2023-04-25T00:20:42;6.55;;;4.80;;
7169;SDS011;3626;42.656;23.312;2023-04-25T00:20:51;6.83;;;4.83;;
7169;SDS011;3626;42.656;23.312;2023-04-25T00:21:00;6.81;;;4.80;;
7169;SDS011;3626;42.656;23.312;2023-04-25T00:21:06;6.80;;;4.80;;
7169;SDS011;3626;42.656;23.312;2023-04-25T00:21:12;6.43;;;4.77;;
7169;SDS011;3626;42.656;23.312;2023-04-25T00:21:18;6.40;;;4.80;;
7169;SDS011;3626;42.656;23.312;2023-04-25T00:21:25;6.75;;;4.70;;
7169;SDS011;3626;42.656;23.312;2023-04-25T00:21:31;7.12;;;4.70;;
7169;SDS011;3626;42.656;23.312;2023-04-25T00:21:37;7.35;;;4.70;;
7169;SDS011;3626;42.656;23.312;2023-04-25T00:21:45;7.57;;;4.60;;
7169;SDS011;3626;42.656;23.312;2023-04-25T00:21:51;7.90;;;4.60;;
7169;SDS011;3626;42.656;23.312;2023-04-25T00:21:58;7.92;;;4.60;;
7169;SDS011;3626;42.656;23.312;2023-04-25T00:22:04;8.00;;;4.53;;
7169;SDS011;3626;42.656;23.312;2023-04-25T00:22:11;8.24;;;4.50;;
7169;SDS011;3626;42.656;23.312;2023-04-25T00:22:17;8.98;;;4.47;;
7169;SDS011;3626;42.656;23.312;2023-04-25T00:22:23;8.75;;;4.35;;
7169;SDS011;3626;42.656;23.312;2023-04-25T00:22:29;8.17;;;4.20;;
7169;SDS011;3626;42.656;23.312;2023-04-25T00:22:35;8.00;;;4.22;;
7169;SDS011;3626;42.656;23.312;2023-04-25T00:22:42;8.00;;;4.20;;
7169;SDS011;3626;42.656;23.312;2023-04-25T00:22:48;7.32;;;4.20;;
7169;SDS011;3626;42.656;23.312;2023-04-25T00:22:54;7.20;;;4.20;;
7169;SDS011;3626;42.656;23.312;2023-04-25T00:23:01;7.30;;;4.30;;
7169;SDS011;3626;42.656;23.312;2023-04-25T00:23:07;7.32;;;4.47;;
7169;SDS011;3626;42.656;23.312;2023-04-25T00:23:13;7.25;;;4.43;;
7169;SDS011;3626;42.656;23.312;2023-04-25T00:23:23;6.76;;;4.60;;
7169;SDS011;3626;42.656;23.312;2023-04-25T00:23:29;7.10;;;4.80;;
7169;SDS011;3626;42.656;23.312;2023-04-25T00:23:34;7.07;;;4.78;;
7169;SDS011;3626;42.656;23.312;2023-04-25T00:23:41;6.88;;;4.70;;
7169;SDS011;3626;42.656;23.312;2023-04-25T00:23:48;6.74;;;4.62;;
7169;SDS011;3626;42.656;23.312;2023-04-25T00:23:54;6.78;;;4.65;;
7169;SDS011;3626;42.656;23.312;2023-04-25T00:24:00;6.80;;;4.60;;
7169;SDS011;3626;42.656;23.312;2023-04-25T00:24:06;6.68;;;4.38;;
7169;SDS011;3626;42.656;23.312;2023-04-25T00:24:12;7.05;;;4.40;;
7169;SDS011;3626;42.656;23.312;2023-04-25T00:24:19;6.90;;;4.28;;
7169;SDS011;3626;42.656;23.312;2023-04-25T00:24:25;6.80;;;4.20;;
7169;SDS011;3626;42.656;23.312;2023-04-25T00:24:31;7.53;;;4.10;;
7169;SDS011;3626;42.656;23.312;2023-04-25T00:24:37;7.55;;;4.13;;
7169;SDS011;3626;42.656;23.312;2023-04-25T00:24:43;8.13;;;4.20;;
7169;SDS011;3626;42.656;23.312;2023-04-25T00:24:48;8.30;;;4.30;;
7169;SDS011;3626;42.656;23.312;2023-04-25T00:24:55;8.08;;;4.10;;
7169;SDS011;3626;42.656;23.312;2023-04-25T00:25:02;7.53;;;4.00;;
7169;SDS011;3626;42.656;23.312;2023-04-25T00:25:10;7.25;;;4.10;;
7169;SDS011;3626;42.656;23.312;2023-04-25T00:25:15;7.18;;;4.00;;
7169;SDS011;3626;42.656;23.312;2023-04-25T00:25:21;6.67;;;3.90;;
7169;SDS011;3626;42.656;23.312;2023-04-25T00:25:27;6.38;;;3.97;;
7169;SDS011;3626;42.656;23.312;2023-04-25T00:25:33;5.64;;;3.86;;
7169;SDS011;3626;42.656;23.312;2023-04-25T00:25:39;5.53;;;3.90;;
7169;SDS011;3626;42.656;23.312;2023-04-25T00:25:45;5.50;;;3.95;;
7169;SDS011;3626;42.656;23.312;2023-04-25T00:25:52;6.24;;;3.92;;
7169;SDS011;3626;42.656;23.312;2023-04-25T00:25:58;6.60;;;4.13;;
7169;SDS011;3626;42.656;23.312;2023-04-25T00:26:05;6.60;;;4.10;;
7169;SDS011;3626;42.656;23.312;2023-04-25T00:26:11;6.30;;;4.03;;
7169;SDS011;3626;42.656;23.312;2023-04-25T00:26:17;6.30;;;4.17;;
7169;SDS011;3626;42.656;23.312;2023-04-25T00:26:23;6.60;;;4.30;;
7169;SDS011;3626;42.656;23.312;2023-04-25T00:26:29;6.60;;;4.30;;
7169;SDS011;3626;42.656;23.312;2023-04-25T00:26:35;6.50;;;4.25;;
7169;SDS011;3626;42.656;23.312;2023-04-25T00:26:42;6.17;;;4.00;;
7169;SDS011;3626;42.656;23.312;2023-04-25T00:26:48;6.03;;;4.05;;
7169;SDS011;3626;42.656;23.312;2023-04-25T00:26:54;5.68;;;4.15;;
7169;SDS011;3626;42.656;23.312;2023-04-25T00:27:00;5.72;;;4.10;;
7169;SDS011;3626;42.656;23.312;2023-04-25T00:27:06;5.78;;;4.10;;
7169;SDS011;3626;42.656;23.312;2023-04-25T00:27:12;5.85;;;4.00;;
7169;SDS011;3626;42.656;23.312;2023-04-25T00:27:18;5.60;;;3.80;;
7169;SDS011;3626;42.656;23.312;2023-04-25T00:27:23;5.40;;;3.72;;
7169;SDS011;3626;42.656;23.312;2023-04-25T00:27:29;5.47;;;3.70;;
7169;SDS011;3626;42.656;23.312;2023-04-25T00:27:35;5.47;;;3.70;;
7169;SDS011;3626;42.656;23.312;2023-04-25T00:27:41;5.50;;;3.80;;
7169;SDS011;3626;42.656;23.312;2023-04-25T00:27:47;5.50;;;3.90;;
7169;SDS011;3626;42.656;23.312;2023-04-25T00:27:53;5.30;;;3.90;;
7169;SDS011;3626;42.656;23.312;2023-04-25T00:27:59;5.28;;;3.90;;
7169;SDS011;3626;42.656;23.312;2023-04-25T00:28:08;5.17;;;3.94;;
7169;SDS011;3626;42.656;23.312;2023-04-25T00:28:14;5.55;;;4.15;;
7169;SDS011;3626;42.656;23.312;2023-04-25T00:28:20;5.87;;;4.37;;
7169;SDS011;3626;42.656;23.312;2023-04-25T00:28:26;6.15;;;4.57;;
7169;SDS011;3626;42.656;23.312;2023-04-25T00:28:32;6.07;;;4.60;;
7169;SDS011;3626;42.656;23.312;2023-04-25T00:28:38;6.00;;;4.68;;
7169;SDS011;3626;42.656;23.312;2023-04-25T00:28:44;6.10;;;4.70;;
7169;SDS011;3626;42.656;23.312;2023-04-25T00:28:50;6.05;;;4.70;;
7169;SDS011;3626;42.656;23.312;2023-04-25T00:28:56;6.18;;;4.85;;
7169;SDS011;3626;42.656;23.312;2023-04-25T00:29:02;6.27;;;4.87;;
7169;SDS011;3626;42.656;23.312;2023-04-25T00:29:10;6.30;;;4.78;;
7169;SDS011;3626;42.656;23.312;2023-04-25T00:29:16;6.15;;;4.57;;
7169;SDS011;3626;42.656;23.312;2023-04-25T00:29:22;5.88;;;4.45;;
7169;SDS011;3626;42.656;23.312;2023-04-25T00:29:33;6.40;;;4.46;;
7169;SDS011;3626;42.656;23.312;2023-04-25T00:29:39;6.90;;;4.50;;
7169;SDS011;3626;42.656;23.312;2023-04-25T00:29:45;6.87;;;4.40;;
7169;SDS011;3626;42.656;23.312;2023-04-25T00:29:51;7.05;;;4.40;;
7169;SDS011;3626;42.656;23.312;2023-04-25T00:29:57;6.93;;;4.30;;
7169;SDS011;3626;42.656;23.312;2023-04-25T00:30:04;6.88;;;4.38;;
7169;SDS011;3626;42.656;23.312;2023-04-25T00:30:11;7.02;;;4.65;;
7169;SDS011;3626;42.656;23.312;2023-04-25T00:30:18;7.27;;;4.83;;
7169;SDS011;3626;42.656;23.312;2023-04-25T00:30:24;7.70;;;4.90;;
7169;SDS011;3626;42.656;23.312;2023-04-25T00:30:30;7.55;;;4.82;;
7169;SDS011;3626;42.656;23.312;2023-04-25T00:30:35;7.47;;;4.80;;
7169;SDS011;3626;42.656;23.312;2023-04-25T00:30:42;7.57;;;4.93;;
7169;SDS011;3626;42.656;23.312;2023-04-25T00:30:48;7.54;;;4.90;;
7169;SDS011;3626;42.656;23.312;2023-04-25T00:30:54;7.70;;;4.90;;
7169;SDS011;3626;42.656;23.312;2023-04-25T00:31:00;7.80;;;4.90;;
7169;SDS011;3626;42.656;23.312;2023-04-25T00:31:06;7.65;;;4.70;;
7169;SDS011;3626;42.656;23.312;2023-04-25T00:31:12;7.43;;;4.70;;
7169;SDS011;3626;42.656;23.312;2023-04-25T00:31:19;7.07;;;4.58;;
7169;SDS011;3626;42.656;23.312;2023-04-25T00:31:25;6.67;;;4.60;;
7169;SDS011;3626;42.656;23.312;2023-04-25T00:31:31;6.55;;;4.60;;
7169;SDS011;3626;42.656;23.312;2023-04-25T00:31:37;6.50;;;4.60;;
7169;SDS011;3626;42.656;23.312;2023-04-25T00:31:43;6.72;;;4.78;;
7169;SDS011;3626;42.656;23.312;2023-04-25T00:31:49;6.90;;;4.80;;
7169;SDS011;3626;42.656;23.312;2023-04-25T00:31:55;6.65;;;4.75;;
7169;SDS011;3626;42.656;23.312;2023-04-25T00:32:01;6.40;;;4.70;;
7169;SDS011;3626;42.656;23.312;2023-04-25T00:32:06;6.33;;;4.70;;
7169;SDS011;3626;42.656;23.312;2023-04-25T00:32:12;6.47;;;4.75;;
7169;SDS011;3626;42.656;23.312;2023-04-25T00:32:18;6.60;;;4.80;;
7169;SDS011;3626;42.656;23.312;2023-04-25T00:32:24;6.43;;;4.80;;
7169;SDS011;3626;42.656;23.312;2023-04-25T00:32:30;6.30;;;4.77;;
7169;SDS011;3626;42.656;23.312;2023-04-25T00:32:37;6.32;;;4.70;;
7169;SDS011;3626;42.656;23.312;2023-04-25T00:32:43;6.55;;;4.75;;
7169;SDS011;3626;42.656;23.312;2023-04-25T00:32:49;6.63;;;4.82;;
7169;SDS011;3626;42.656;23.312;2023-04-25T00:32:54;6.80;;;4.90;;
7169;SDS011;3626;42.656;23.312;2023-04-25T00:33:00;6.85;;;4.93;;
7169;SDS011;3626;42.656;23.312;2023-04-25T00:33:06;6.95;;;5.05;;
7169;SDS011;3626;42.656;23.312;2023-04-25T00:33:13;7.30;;;5.03;;
7169;SDS011;3626;42.656;23.312;2023-04-25T00:33:19;7.50;;;5.00;;
7169;SDS011;3626;42.656;23.312;2023-04-25T00:33:25;9.70;;;5.10;;
7169;SDS011;3626;42.656;23.312;2023-04-25T00:33:30;10.80;;;5.22;;
7169;SDS011;3626;42.656;23.312;2023-04-25T00:33:36;10.98;;;5.28;;
7169;SDS011;3626;42.656;23.312;2023-04-25T00:33:42;10.43;;;5.03;;
7169;SDS011;3626;42.656;23.312;2023-04-25T00:33:48;10.43;;;4.90;;
7169;SDS011;3626;42.656;23.312;2023-04-25T00:33:56;11.63;;;4.87;;
7169;SDS011;3626;42.656;23.312;2023-04-25T00:34:02;12.57;;;4.90;;
7169;SDS011;3626;42.656;23.312;2023-04-25T00:34:08;12.43;;;4.90;;
7169;SDS011;3626;42.656;23.312;2023-04-25T00:34:14;12.20;;;5.00;;
7169;SDS011;3626;42.656;23.312;2023-04-25T00:34:20;12.03;;;5.00;;
7169;SDS011;3626;42.656;23.312;2023-04-25T00:34:26;9.80;;;5.00;;
7169;SDS011;3626;42.656;23.312;2023-04-25T00:34:32;8.98;;;4.90;;
7169;SDS011;3626;42.656;23.312;2023-04-25T00:34:37;8.60;;;4.72;;
7169;SDS011;3626;42.656;23.312;2023-04-25T00:34:43;8.82;;;4.80;;
7169;SDS011;3626;42.656;23.312;2023-04-25T00:34:49;8.63;;;4.82;;
7169;SDS011;3626;42.656;23.312;2023-04-25T00:34:55;8.02;;;4.72;;
7169;SDS011;3626;42.656;23.312;2023-04-25T00:35:03;7.30;;;4.80;;
7169;SDS011;3626;42.656;23.312;2023-04-25T00:35:09;7.76;;;4.96;;
7169;SDS011;3626;42.656;23.312;2023-04-25T00:35:15;7.65;;;4.88;;
7169;SDS011;3626;42.656;23.312;2023-04-25T00:35:21;7.80;;;4.93;;
7169;SDS011;3626;42.656;23.312;2023-04-25T00:35:27;7.82;;;5.00;;
7169;SDS011;3626;42.656;23.312;2023-04-25T00:35:34;8.00;;;5.10;;
7169;SDS011;3626;42.656;23.312;2023-04-25T00:35:40;8.25;;;5.18;;
7169;SDS011;3626;42.656;23.312;2023-04-25T00:35:46;8.07;;;5.20;;
7169;SDS011;3626;42.656;23.312;2023-04-25T00:35:52;8.18;;;5.38;;
7169;SDS011;3626;42.656;23.312;2023-04-25T00:35:58;7.95;;;5.50;;
7169;SDS011;3626;42.656;23.312;2023-04-25T00:36:04;7.80;;;5.40;;
7169;SDS011;3626;42.656;23.312;2023-04-25T00:36:11;7.83;;;5.53;;
7169;SDS011;3626;42.656;23.312;2023-04-25T00:36:19;7.94;;;5.52;;
7169;SDS011;3626;42.656;23.312;2023-04-25T00:36:24;7.75;;;5.32;;
7169;SDS011;3626;42.656;23.312;2023-04-25T00:36:31;7.60;;;5.27;;
7169;SDS011;3626;42.656;23.312;2023-04-25T00:36:37;7.65;;;5.30;;
7169;SDS011;3626;42.656;23.312;2023-04-25T00:36:43;7.83;;;5.40;;
7169;SDS011;3626;42.656;23.312;2023-04-25T00:36:50;8.04;;;5.44;;
7169;SDS011;3626;42.656;23.312;2023-04-25T00:36:56;8.30;;;5.43;;
7169;SDS011;3626;42.656;23.312;2023-04-25T00:37:02;9.23;;;5.60;;
7169;SDS011;3626;42.656;23.312;2023-04-25T00:37:08;9.93;;;5.50;;
7169;SDS011;3626;42.656;23.312;2023-04-25T00:37:14;10.10;;;5.45;;
7169;SDS011;3626;42.656;23.312;2023-04-25T00:37:20;10.47;;;5.63;;
7169;SDS011;3626;42.656;23.312;2023-04-25T00:37:26;10.65;;;5.78;;
7169;SDS011;3626;42.656;23.312;2023-04-25T00:37:32;11.43;;;5.90;;
7169;SDS011;3626;42.656;23.312;2023-04-25T00:37:38;11.85;;;5.97;;
7169;SDS011;3626;42.656;23.312;2023-04-25T00:37:44;12.05;;;6.07;;
7169;SDS011;3626;42.656;23.312;2023-04-25T00:37:50;12.00;;;6.00;;
7169;SDS011;3626;42.656;23.312;2023-04-25T00:37:56;12.23;;;6.07;;
7169;SDS011;3626;42.656;23.312;2023-04-25T00:38:02;11.15;;;5.82;;
7169;SDS011;3626;42.656;23.312;2023-04-25T00:38:08;10.40;;;5.90;;
7169;SDS011;3626;42.656;23.312;2023-04-25T00:38:13;11.35;;;5.93;;
7169;SDS011;3626;42.656;23.312;2023-04-25T00:38:20;11.68;;;5.70;;
7169;SDS011;3626;42.656;23.312;2023-04-25T00:38:26;11.75;;;5.75;;
7169;SDS011;3626;42.656;23.312;2023-04-25T00:38:32;11.38;;;5.70;;
7169;SDS011;3626;42.656;23.312;2023-04-25T00:38:38;12.48;;;5.47;;
7169;SDS011;3626;42.656;23.312;2023-04-25T00:38:45;12.70;;;5.40;;
7169;SDS011;3626;42.656;23.312;2023-04-25T00:38:50;12.77;;;5.38;;